Kashi, China
Current Conditions -  °F | °C
As of 1:00 AM on Wednesday 28 Jan 2015 (Local Time) from ZWSH Reporting Station
Light Snow Light Snow  
Wind Chill: 23°   Ceiling: NA
Heat Index: 23°   Visibility: 2.8mi
Dew Point: 19°   Wind: 0mph
Humidity: 86%   Direction: NA
Pressure: 30.21"   Gusts: NA
Location:  39.48°N, 75.97°E
Report Text: ZWSH 271700Z AUTO 00000MPS 4600 -SN BR M05/M07 Q1023 REFZDZ
Loading
Personal Weather Stations






























Interactive Weather Map New forecast layout! Learn more

10-Day Weather Forecast

Advertisements
Track Severe Weather on mobile